createdAt,value
2018-03-20T00:00:13.068Z,79.74
2018-03-20T00:01:13.034Z,80.11
2018-03-20T00:02:12.964Z,80.21
2018-03-20T00:03:12.898Z,80.68
2018-03-20T00:04:12.846Z,80.96
2018-03-20T00:05:12.794Z,80.87
2018-03-20T00:06:12.779Z,81.24
2018-03-20T00:07:12.686Z,81.72
2018-03-20T00:08:12.622Z,81.53
2018-03-20T00:09:12.567Z,81.43
2018-03-20T00:10:12.512Z,80.87
2018-03-20T00:11:12.483Z,80.02
2018-03-20T00:12:12.401Z,80.30
2018-03-20T00:13:12.352Z,80.49
2018-03-20T00:14:12.286Z,81.11
2018-03-20T00:15:12.239Z,79.98
2018-03-20T00:16:12.202Z,79.79
2018-03-20T00:17:12.124Z,79.79
2018-03-20T00:18:12.064Z,80.26
2018-03-20T00:19:12.009Z,80.83
2018-03-20T00:20:11.960Z,81.11
2018-03-20T00:21:11.925Z,81.21
2018-03-20T00:22:11.846Z,80.92
2018-03-20T00:23:11.791Z,81.58
2018-03-20T00:24:11.738Z,81.87
2018-03-20T00:25:11.674Z,81.96
2018-03-20T00:26:11.654Z,82.43
2018-03-20T00:27:11.566Z,82.53
2018-03-20T00:28:11.509Z,83.28
2018-03-20T00:29:11.458Z,83.56
2018-03-20T00:30:11.398Z,83.18
2018-03-20T00:31:11.370Z,82.62
2018-03-20T00:32:11.290Z,82.62
2018-03-20T00:33:11.236Z,82.62
2018-03-20T00:34:11.176Z,82.34
2018-03-20T00:35:11.120Z,81.96
2018-03-20T00:36:11.087Z,81.77
2018-03-20T00:37:11.012Z,81.58
2018-03-20T00:38:10.951Z,81.58
2018-03-20T00:39:10.897Z,81.21
2018-03-20T00:40:10.842Z,81.21
2018-03-20T00:41:10.808Z,81.15
2018-03-20T00:42:10.730Z,80.64
2018-03-20T00:43:10.677Z,81.11
2018-03-20T00:44:10.623Z,81.49
2018-03-20T00:45:10.563Z,81.58
2018-03-20T00:46:10.508Z,82.24
2018-03-20T00:47:10.484Z,82.19
2018-03-20T00:48:10.412Z,82.28
2018-03-20T00:49:10.352Z,83.04
2018-03-20T00:50:10.290Z,83.51
2018-03-20T00:51:10.239Z,83.42
2018-03-20T00:52:10.196Z,83.98
2018-03-20T00:53:10.126Z,84.36
2018-03-20T00:54:10.064Z,84.08
2018-03-20T00:55:10.016Z,84.08
2018-03-20T00:56:09.954Z,84.17
2018-03-20T00:57:09.937Z,84.45
2018-03-20T00:58:09.847Z,84.27
2018-03-20T00:59:09.790Z,84.45
2018-03-20T01:00:09.729Z,84.64
2018-03-20T01:01:09.681Z,84.64
2018-03-20T01:02:09.653Z,84.45
2018-03-20T01:03:09.567Z,84.74
2018-03-20T01:04:09.519Z,84.55
2018-03-20T01:05:09.455Z,84.27
2018-03-20T01:06:09.405Z,84.27
2018-03-20T01:07:09.372Z,84.27
2018-03-20T01:08:09.288Z,84.45
2018-03-20T01:09:09.238Z,84.55
2018-03-20T01:10:09.178Z,83.98
2018-03-20T01:11:09.125Z,84.36
2018-03-20T01:12:09.092Z,84.17
2018-03-20T01:13:09.015Z,83.89
2018-03-20T01:14:08.999Z,83.80
2018-03-20T01:15:08.905Z,83.80
2018-03-20T01:16:08.852Z,83.61
2018-03-20T01:17:08.816Z,83.93
2018-03-20T01:18:08.741Z,83.80
2018-03-20T01:19:08.688Z,83.74
2018-03-20T01:20:08.631Z,83.93
2018-03-20T01:21:08.573Z,83.65
2018-03-20T01:22:08.545Z,83.46
2018-03-20T01:23:08.467Z,82.70
2018-03-20T01:24:08.414Z,82.70
2018-03-20T01:25:08.355Z,82.89
2018-03-20T01:26:08.303Z,82.51
2018-03-20T01:27:08.268Z,83.17
2018-03-20T01:28:08.194Z,83.55
2018-03-20T01:29:08.138Z,83.36
2018-03-20T01:30:08.088Z,83.36
2018-03-20T01:31:08.028Z,83.46
2018-03-20T01:32:08.004Z,83.46
2018-03-20T01:33:07.916Z,83.36
2018-03-20T01:34:07.865Z,82.99
2018-03-20T01:35:07.812Z,82.99
2018-03-20T01:36:07.756Z,82.70
2018-03-20T01:37:07.729Z,83.17
2018-03-20T01:38:07.646Z,83.08
2018-03-20T01:39:07.591Z,82.70
2018-03-20T01:40:07.536Z,83.08
2018-03-20T01:41:07.484Z,82.89
2018-03-20T01:42:07.456Z,82.51
2018-03-20T01:43:07.377Z,82.89
2018-03-20T01:44:07.318Z,82.61
2018-03-20T01:45:07.266Z,82.32
2018-03-20T01:46:07.212Z,81.85
2018-03-20T01:47:07.179Z,82.04
2018-03-20T01:48:07.102Z,81.48
2018-03-20T01:49:07.047Z,81.48
2018-03-20T01:50:06.991Z,81.20
2018-03-20T01:51:06.939Z,81.29
2018-03-20T01:52:06.906Z,81.01
2018-03-20T01:53:06.834Z,80.82
2018-03-20T01:54:06.775Z,80.06
2018-03-20T01:55:06.719Z,79.30
2018-03-20T01:56:06.667Z,79.21
2018-03-20T01:57:06.633Z,79.59
2018-03-20T01:58:06.557Z,79.97
2018-03-20T01:59:06.502Z,79.97
2018-03-20T02:00:06.452Z,79.30
2018-03-20T02:01:06.393Z,79.68
2018-03-20T02:02:06.362Z,79.87
2018-03-20T02:03:06.313Z,79.87
2018-03-20T02:04:06.232Z,80.06
2018-03-20T02:05:06.178Z,80.53
2018-03-20T02:06:06.122Z,80.34
2018-03-20T02:07:06.093Z,80.15
2018-03-20T02:08:06.015Z,80.15
2018-03-20T02:09:05.964Z,80.91
2018-03-20T02:10:05.905Z,80.15
2018-03-20T02:11:05.849Z,80.53
2018-03-20T02:12:05.823Z,79.78
2018-03-20T02:13:05.744Z,79.21
2018-03-20T02:14:05.689Z,79.30
2018-03-20T02:15:05.633Z,79.30
2018-03-20T02:16:05.586Z,78.83
2018-03-20T02:17:05.551Z,78.45
2018-03-20T02:18:05.469Z,77.89
2018-03-20T02:19:05.418Z,78.27
2018-03-20T02:20:05.367Z,77.98
2018-03-20T02:21:05.340Z,79.16
2018-03-20T02:22:05.280Z,78.92
2018-03-20T02:23:05.201Z,78.64
2018-03-20T02:24:05.144Z,78.21
2018-03-20T02:25:05.094Z,78.40
2018-03-20T02:26:05.039Z,78.87
2018-03-20T02:27:05.009Z,79.63
2018-03-20T02:28:04.929Z,79.16
2018-03-20T02:29:04.873Z,78.97
2018-03-20T02:30:04.829Z,79.35
2018-03-20T02:31:04.772Z,79.53
2018-03-20T02:32:04.744Z,79.53
2018-03-20T02:33:04.662Z,79.25
2018-03-20T02:34:04.608Z,78.97
2018-03-20T02:35:04.550Z,79.35
2018-03-20T02:36:04.501Z,79.25
2018-03-20T02:37:04.471Z,79.35
2018-03-20T02:38:04.392Z,79.82
2018-03-20T02:39:04.340Z,79.82
2018-03-20T02:40:04.284Z,79.63
2018-03-20T02:41:04.232Z,79.53
2018-03-20T02:42:04.201Z,79.91
2018-03-20T02:43:04.120Z,80.66
2018-03-20T02:44:04.066Z,79.82
2018-03-20T02:45:04.017Z,80.10
2018-03-20T02:46:03.959Z,80.19
2018-03-20T02:47:03.930Z,79.35
2018-03-20T02:48:03.854Z,80.10
2018-03-20T02:49:03.798Z,80.19
2018-03-20T02:50:03.748Z,80.95
2018-03-20T02:51:03.701Z,80.29
2018-03-20T02:52:03.656Z,80.00
2018-03-20T02:53:03.579Z,80.66
2018-03-20T02:54:03.528Z,81.71
2018-03-20T02:55:03.475Z,83.22
2018-03-20T02:56:03.424Z,83.88
2018-03-20T02:57:03.390Z,83.88
2018-03-20T02:58:03.313Z,83.59
2018-03-20T02:59:03.260Z,83.97
2018-03-20T03:00:03.205Z,84.35
2018-03-20T03:01:03.150Z,85.20
2018-03-20T03:02:03.120Z,86.24
2018-03-20T03:03:03.042Z,87.75
2018-03-20T03:04:02.994Z,88.13
2018-03-20T03:05:02.942Z,89.17
2018-03-20T03:06:02.879Z,88.51
2018-03-20T03:07:02.852Z,88.23
2018-03-20T03:08:02.772Z,88.70
2018-03-20T03:09:02.721Z,89.07
2018-03-20T03:10:02.666Z,89.45
2018-03-20T03:11:02.609Z,89.73
2018-03-20T03:12:02.587Z,90.30
2018-03-20T03:13:02.501Z,90.87
2018-03-20T03:14:02.465Z,91.53
2018-03-20T03:15:02.408Z,91.25
2018-03-20T03:16:02.346Z,90.21
2018-03-20T03:17:02.307Z,90.59
2018-03-20T03:18:02.232Z,91.44
2018-03-20T03:19:02.176Z,90.96
2018-03-20T03:20:02.122Z,91.25
2018-03-20T03:21:02.068Z,91.91
2018-03-20T03:22:02.038Z,92.57
2018-03-20T03:23:01.963Z,92.29
2018-03-20T03:24:01.906Z,93.51
2018-03-20T03:25:01.854Z,93.42
2018-03-20T03:26:01.796Z,93.23
2018-03-20T03:27:01.769Z,93.61
2018-03-20T03:28:01.691Z,94.37
2018-03-20T03:29:01.635Z,93.80
2018-03-20T03:30:01.581Z,94.65
2018-03-20T03:31:01.526Z,94.74
2018-03-20T03:32:01.510Z,94.37
2018-03-20T03:33:01.418Z,94.51
2018-03-20T03:34:01.369Z,94.70
2018-03-20T03:35:01.314Z,95.07
2018-03-20T03:36:01.253Z,95.26
2018-03-20T03:37:01.202Z,95.40
2018-03-20T03:38:01.168Z,96.16
2018-03-20T03:39:01.092Z,95.97
2018-03-20T03:40:01.041Z,96.35
2018-03-20T03:41:00.986Z,96.63
2018-03-20T03:42:00.928Z,96.25
2018-03-20T03:43:00.901Z,96.35
2018-03-20T03:44:00.819Z,96.44
2018-03-20T03:45:00.767Z,96.82
2018-03-20T03:46:00.714Z,97.01
2018-03-20T03:47:00.658Z,96.35
2018-03-20T03:48:00.633Z,96.91
2018-03-20T03:49:00.547Z,97.01
2018-03-20T03:50:00.496Z,96.63
2018-03-20T03:51:00.441Z,96.44
2018-03-20T03:52:00.386Z,96.06
2018-03-20T03:53:00.370Z,95.97
2018-03-20T03:54:00.279Z,96.73
2018-03-20T03:55:00.226Z,96.44
2018-03-20T03:56:00.172Z,96.91
2018-03-20T03:57:00.117Z,96.91
2018-03-20T03:58:00.091Z,96.73
2018-03-20T03:59:00.008Z,96.44
2018-03-20T03:59:59.956Z,97.01
2018-03-20T04:00:59.910Z,97.39
2018-03-20T04:01:59.847Z,97.86
2018-03-20T04:02:59.816Z,97.20
2018-03-20T04:03:59.739Z,96.73
2018-03-20T04:04:59.685Z,97.01
2018-03-20T04:05:59.628Z,96.63
2018-03-20T04:06:59.573Z,96.73
2018-03-20T04:07:59.565Z,96.91
2018-03-20T04:08:59.466Z,96.91
2018-03-20T04:09:59.412Z,96.63
2018-03-20T04:11:06.559Z,97.39
2018-03-20T04:11:59.302Z,97.01
2018-03-20T04:12:59.275Z,96.91
2018-03-20T04:13:59.199Z,96.73
2018-03-20T04:14:59.141Z,97.39
2018-03-20T04:15:59.087Z,97.77
2018-03-20T04:16:59.033Z,97.10
2018-03-20T04:17:59.001Z,96.63
2018-03-20T04:18:58.927Z,97.58
2018-03-20T04:19:58.868Z,97.10
2018-03-20T04:20:58.824Z,97.29
2018-03-20T04:21:58.761Z,96.82
2018-03-20T04:22:58.731Z,96.91
2018-03-20T04:23:58.654Z,96.91
2018-03-20T04:24:58.601Z,96.82
2018-03-20T04:25:58.543Z,97.48
2018-03-20T04:26:58.492Z,97.86
2018-03-20T04:27:58.457Z,97.86
2018-03-20T04:28:58.386Z,97.86
2018-03-20T04:29:58.325Z,97.39
2018-03-20T04:30:58.274Z,97.67
2018-03-20T04:31:58.221Z,98.52
2018-03-20T04:32:58.191Z,98.43
2018-03-20T04:33:58.117Z,97.77
2018-03-20T04:34:58.060Z,97.58
2018-03-20T04:35:58.004Z,97.96
2018-03-20T04:36:57.949Z,98.24
2018-03-20T04:37:57.920Z,98.43
2018-03-20T04:38:57.841Z,99.18
2018-03-20T04:39:57.788Z,98.99
2018-03-20T04:40:57.739Z,98.90
2018-03-20T04:41:57.680Z,98.80
2018-03-20T04:42:57.650Z,99.18
2018-03-20T04:43:57.568Z,98.71
2018-03-20T04:44:57.513Z,98.52
2018-03-20T04:45:57.458Z,99.37
2018-03-20T04:46:57.416Z,99.46
2018-03-20T04:47:57.376Z,99.27
2018-03-20T04:48:57.301Z,99.08
2018-03-20T04:49:57.245Z,99.37
2018-03-20T04:50:57.186Z,99.99
2018-03-20T04:51:57.132Z,99.99
2018-03-20T04:52:57.110Z,99.37
2018-03-20T04:53:57.029Z,99.84
2018-03-20T04:54:56.973Z,99.84
2018-03-20T04:55:56.926Z,99.84
2018-03-20T04:56:56.866Z,99.84
2018-03-20T04:57:56.838Z,99.46
2018-03-20T04:58:56.757Z,99.94
2018-03-20T04:59:56.704Z,99.84
2018-03-20T05:00:56.647Z,99.94
2018-03-20T05:01:56.592Z,99.99
2018-03-20T05:02:56.572Z,99.99
2018-03-20T05:03:56.487Z,99.75
2018-03-20T05:04:56.438Z,99.99
2018-03-20T05:05:56.378Z,99.99
2018-03-20T05:06:56.325Z,99.99
2018-03-20T05:07:56.350Z,99.99
2018-03-20T05:08:56.217Z,99.94
2018-03-20T05:09:56.159Z,99.27
2018-03-20T05:10:56.110Z,99.84
2018-03-20T05:11:56.056Z,99.99
2018-03-20T05:12:56.024Z,99.99
2018-03-20T05:13:55.946Z,99.94
2018-03-20T05:14:55.889Z,99.84
2018-03-20T05:15:55.839Z,99.99
2018-03-20T05:16:55.782Z,99.75
2018-03-20T05:17:55.761Z,99.94
2018-03-20T05:18:55.676Z,99.18
2018-03-20T05:19:55.617Z,99.75
2018-03-20T05:20:55.565Z,99.56
2018-03-20T05:21:55.515Z,99.75
2018-03-20T05:22:55.483Z,99.27
2018-03-20T05:23:55.405Z,98.99
2018-03-20T05:24:55.351Z,99.46
2018-03-20T05:25:55.298Z,99.99
2018-03-20T05:26:55.241Z,99.99
2018-03-20T05:27:55.218Z,99.99
2018-03-20T05:28:55.145Z,99.46
2018-03-20T05:29:55.084Z,99.37
2018-03-20T05:30:55.026Z,99.56
2018-03-20T05:31:54.972Z,99.18
2018-03-20T05:32:54.940Z,99.27
2018-03-20T05:33:54.866Z,99.08
2018-03-20T05:34:54.813Z,98.80
2018-03-20T05:35:54.760Z,99.56
2018-03-20T05:36:54.702Z,99.99
2018-03-20T05:37:54.686Z,99.94
2018-03-20T05:38:54.602Z,99.65
2018-03-20T05:39:54.539Z,99.75
2018-03-20T05:40:54.485Z,99.99
2018-03-20T05:41:54.484Z,99.27
2018-03-20T05:42:54.377Z,99.94
2018-03-20T05:43:54.346Z,99.75
2018-03-20T05:44:54.273Z,99.94
2018-03-20T05:45:54.215Z,99.99
2018-03-20T05:46:54.161Z,99.94
2018-03-20T05:47:54.111Z,99.84
2018-03-20T05:48:54.096Z,99.94
2018-03-20T05:49:54.001Z,99.94
2018-03-20T05:50:53.963Z,99.99
2018-03-20T05:51:53.889Z,99.99
2018-03-20T05:52:53.843Z,99.99
2018-03-20T05:53:53.807Z,99.99
2018-03-20T05:54:53.744Z,99.99
2018-03-20T05:55:53.676Z,99.99
2018-03-20T05:56:53.630Z,99.99
2018-03-20T05:57:53.567Z,99.99
2018-03-20T05:58:53.535Z,99.99
2018-03-20T05:59:53.461Z,99.99
2018-03-20T06:00:53.407Z,99.99
2018-03-20T06:01:53.353Z,99.99
2018-03-20T06:02:53.303Z,99.99
2018-03-20T06:03:53.266Z,99.99
2018-03-20T06:04:53.187Z,99.99
2018-03-20T06:05:53.137Z,99.99
2018-03-20T06:06:53.081Z,99.99
2018-03-20T06:07:53.029Z,99.99
2018-03-20T06:08:52.998Z,99.99
2018-03-20T06:09:52.920Z,99.99
2018-03-20T06:10:52.866Z,99.99
2018-03-20T06:11:52.808Z,99.99
2018-03-20T06:12:52.755Z,99.99
2018-03-20T06:13:52.729Z,99.99
2018-03-20T06:14:52.650Z,99.99
2018-03-20T06:15:52.597Z,99.94
2018-03-20T06:16:52.542Z,99.99
2018-03-20T06:17:52.492Z,99.99
2018-03-20T06:18:52.472Z,99.99
2018-03-20T06:19:52.385Z,99.99
2018-03-20T06:20:52.326Z,99.99
2018-03-20T06:21:52.319Z,99.99
2018-03-20T06:22:52.224Z,99.99
2018-03-20T06:23:52.170Z,99.99
2018-03-20T06:24:52.138Z,99.99
2018-03-20T06:25:52.063Z,99.99
2018-03-20T06:26:52.003Z,99.99
2018-03-20T06:27:51.953Z,99.99
2018-03-20T06:28:51.898Z,99.99
2018-03-20T06:29:51.866Z,99.99
2018-03-20T06:30:51.792Z,99.99
2018-03-20T06:31:51.739Z,99.99
2018-03-20T06:32:51.684Z,99.99
2018-03-20T06:33:51.626Z,99.99
2018-03-20T06:34:51.600Z,99.99
2018-03-20T06:35:51.519Z,99.99
2018-03-20T06:36:51.467Z,99.99
2018-03-20T06:37:51.417Z,99.99
2018-03-20T06:38:51.421Z,99.99
2018-03-20T06:39:51.350Z,99.99
2018-03-20T06:40:51.251Z,99.99
2018-03-20T06:41:51.202Z,99.99
2018-03-20T06:42:51.154Z,99.99
2018-03-20T06:43:51.094Z,99.99
2018-03-20T06:44:51.059Z,99.99
2018-03-20T06:45:50.985Z,99.99
2018-03-20T06:46:50.928Z,99.99
2018-03-20T06:47:50.883Z,99.99
2018-03-20T06:48:50.822Z,99.99
2018-03-20T06:49:50.793Z,99.99
2018-03-20T06:50:50.720Z,99.99
2018-03-20T06:51:50.665Z,99.99
2018-03-20T06:52:50.612Z,99.99
2018-03-20T06:53:50.553Z,99.99
2018-03-20T06:54:50.526Z,99.99
2018-03-20T06:55:50.449Z,99.99
2018-03-20T06:56:50.395Z,99.99
2018-03-20T06:57:50.347Z,99.99
2018-03-20T06:58:50.288Z,99.99
2018-03-20T06:59:50.256Z,99.99
2018-03-20T07:00:50.178Z,99.99
2018-03-20T07:01:50.125Z,99.99
2018-03-20T07:02:50.071Z,99.99
2018-03-20T07:03:50.018Z,99.99
2018-03-20T07:04:49.992Z,99.99
2018-03-20T07:05:49.919Z,99.99
2018-03-20T07:06:49.858Z,99.99
2018-03-20T07:07:49.802Z,99.99
2018-03-20T07:08:49.751Z,99.99
2018-03-20T07:09:49.719Z,99.99
2018-03-20T07:10:49.642Z,99.99
2018-03-20T07:11:49.660Z,99.99
2018-03-20T07:12:49.547Z,99.99
2018-03-20T07:13:49.482Z,99.99
2018-03-20T07:14:49.453Z,99.99
2018-03-20T07:15:49.375Z,99.99
2018-03-20T07:16:49.320Z,99.99
2018-03-20T07:17:49.268Z,99.99
2018-03-20T07:18:49.215Z,99.99
2018-03-20T07:19:49.186Z,99.99
2018-03-20T07:20:49.106Z,99.99
2018-03-20T07:21:49.054Z,99.99
2018-03-20T07:22:49.024Z,99.99
2018-03-20T07:23:48.943Z,99.99
2018-03-20T07:24:48.915Z,99.99
2018-03-20T07:25:48.836Z,99.99
2018-03-20T07:26:48.785Z,99.99
2018-03-20T07:27:48.732Z,99.99
2018-03-20T07:28:48.675Z,99.99
2018-03-20T07:29:48.649Z,99.99
2018-03-20T07:30:48.571Z,99.99
2018-03-20T07:31:48.515Z,99.99
2018-03-20T07:32:48.463Z,99.99
2018-03-20T07:33:48.411Z,99.99
2018-03-20T07:34:48.385Z,99.99
2018-03-20T07:35:48.299Z,99.99
2018-03-20T07:36:48.249Z,99.99
2018-03-20T07:37:48.193Z,99.99
2018-03-20T07:38:48.148Z,99.99
2018-03-20T07:39:48.146Z,99.99
2018-03-20T07:40:48.034Z,99.80
2018-03-20T07:41:47.979Z,99.62
2018-03-20T07:42:47.927Z,98.86
2018-03-20T07:43:47.880Z,97.91
2018-03-20T07:44:47.845Z,97.06
2018-03-20T07:45:47.768Z,97.06
2018-03-20T07:46:47.711Z,97.20
2018-03-20T07:47:47.661Z,95.78
2018-03-20T07:48:47.619Z,96.35
2018-03-20T07:49:47.576Z,95.21
2018-03-20T07:50:47.499Z,94.56
2018-03-20T07:51:47.444Z,95.12
2018-03-20T07:52:47.392Z,94.74
2018-03-20T07:53:47.342Z,93.70
2018-03-20T07:54:47.312Z,92.66
2018-03-20T07:55:47.232Z,92.38
2018-03-20T07:56:47.186Z,92.00
2018-03-20T07:57:47.136Z,91.72
2018-03-20T07:58:47.076Z,91.62
2018-03-20T07:59:47.045Z,90.96
2018-03-20T08:00:46.970Z,91.72
2018-03-20T08:01:46.967Z,92.19
2018-03-20T08:02:46.867Z,92.19
2018-03-20T08:03:46.812Z,92.29
2018-03-20T08:04:46.781Z,92.00
2018-03-20T08:05:46.715Z,91.72
2018-03-20T08:06:46.653Z,90.58
2018-03-20T08:07:46.598Z,90.39
2018-03-20T08:08:46.546Z,90.20
2018-03-20T08:09:46.520Z,89.63
2018-03-20T08:10:46.440Z,89.63
2018-03-20T08:11:46.391Z,89.63
2018-03-20T08:12:46.339Z,88.97
2018-03-20T08:13:46.307Z,88.31
2018-03-20T08:14:46.255Z,88.49
2018-03-20T08:15:46.180Z,88.31
2018-03-20T08:16:46.138Z,88.31
2018-03-20T08:17:46.073Z,88.40
2018-03-20T08:18:46.021Z,88.21
2018-03-20T08:19:45.997Z,87.93
2018-03-20T08:20:45.917Z,87.59
2018-03-20T08:21:45.862Z,88.35
2018-03-20T08:22:45.815Z,88.07
2018-03-20T08:23:45.756Z,88.45
2018-03-20T08:24:45.733Z,87.78
2018-03-20T08:25:45.654Z,86.93
2018-03-20T08:26:45.604Z,86.65
2018-03-20T08:27:45.549Z,87.50
2018-03-20T08:28:45.497Z,86.74
2018-03-20T08:29:45.469Z,86.55
2018-03-20T08:30:45.391Z,86.65
2018-03-20T08:31:45.336Z,85.99
2018-03-20T08:32:45.295Z,85.04
2018-03-20T08:33:45.237Z,84.66
2018-03-20T08:34:45.208Z,84.66
2018-03-20T08:35:45.132Z,84.66
2018-03-20T08:36:45.081Z,84.66
2018-03-20T08:37:45.030Z,84.56
2018-03-20T08:38:44.976Z,84.56
2018-03-20T08:39:44.942Z,84.75
2018-03-20T08:40:44.874Z,84.47
2018-03-20T08:41:44.823Z,84.75
2018-03-20T08:42:44.773Z,84.85
2018-03-20T08:43:44.717Z,84.38
2018-03-20T08:44:44.686Z,84.09
2018-03-20T08:45:44.614Z,84.09
2018-03-20T08:46:44.561Z,84.38
2018-03-20T08:47:44.509Z,83.71
2018-03-20T08:48:44.458Z,83.62
2018-03-20T08:49:44.431Z,83.14
2018-03-20T08:50:44.353Z,83.71
2018-03-20T08:51:44.303Z,84.38
2018-03-20T08:52:44.247Z,83.33
2018-03-20T08:53:44.194Z,83.81
2018-03-20T08:54:44.169Z,82.95
2018-03-20T08:55:44.096Z,83.24
2018-03-20T08:56:44.047Z,82.67
2018-03-20T08:57:43.988Z,82.67
2018-03-20T08:58:43.937Z,82.57
2018-03-20T08:59:43.907Z,81.82
2018-03-20T09:00:43.833Z,82.29
2018-03-20T09:01:43.785Z,81.92
2018-03-20T09:02:43.734Z,81.15
2018-03-20T09:03:43.676Z,80.96
2018-03-20T09:04:43.647Z,81.25
2018-03-20T09:05:43.570Z,81.72
2018-03-20T09:06:43.522Z,82.29
2018-03-20T09:07:43.469Z,82.67
2018-03-20T09:08:43.415Z,82.48
2018-03-20T09:09:43.386Z,82.52
2018-03-20T09:10:43.706Z,81.44
2018-03-20T09:11:43.258Z,81.53
2018-03-20T09:12:43.208Z,81.92
2018-03-20T09:13:43.163Z,81.86
2018-03-20T09:14:43.133Z,81.86
2018-03-20T09:15:43.052Z,80.53
2018-03-20T09:16:43.006Z,80.34
2018-03-20T09:17:42.949Z,79.77
2018-03-20T09:18:42.900Z,79.58
2018-03-20T09:19:42.846Z,79.58
2018-03-20T09:20:42.814Z,79.77
2018-03-20T09:21:42.741Z,79.87
2018-03-20T09:22:42.694Z,80.15
2018-03-20T09:23:42.639Z,79.77
2018-03-20T09:24:42.585Z,79.87
2018-03-20T09:25:42.558Z,80.25
2018-03-20T09:26:42.484Z,80.15
2018-03-20T09:27:42.429Z,79.58
2018-03-20T09:28:42.377Z,78.26
2018-03-20T09:29:42.327Z,78.92
2018-03-20T09:30:42.300Z,78.83
2018-03-20T09:31:42.222Z,79.02
2018-03-20T09:32:42.171Z,79.49
2018-03-20T09:33:42.119Z,78.35
2018-03-20T09:34:42.066Z,77.97
2018-03-20T09:35:42.036Z,77.69
2018-03-20T09:36:41.966Z,77.88
2018-03-20T09:37:41.915Z,77.59
2018-03-20T09:38:41.860Z,77.40
2018-03-20T09:39:41.809Z,77.59
2018-03-20T09:40:41.783Z,77.88
2018-03-20T09:41:41.704Z,78.35
2018-03-20T09:42:41.652Z,79.30
2018-03-20T09:43:41.601Z,78.35
2018-03-20T09:44:45.369Z,76.74
2018-03-20T09:45:41.527Z,76.27
2018-03-20T09:46:42.742Z,78.07
2018-03-20T09:47:41.397Z,79.02
2018-03-20T09:48:41.347Z,79.15
2018-03-20T09:49:41.295Z,78.49
2018-03-20T09:50:41.260Z,77.64
2018-03-20T09:51:41.185Z,77.16
2018-03-20T09:52:41.132Z,75.26
2018-03-20T09:53:41.082Z,74.98
2018-03-20T09:54:41.034Z,74.98
2018-03-20T09:55:41.007Z,74.41
2018-03-20T09:56:40.928Z,74.32
2018-03-20T09:57:40.885Z,74.51
2018-03-20T09:58:40.828Z,74.98
2018-03-20T09:59:40.772Z,74.51
2018-03-20T10:00:40.749Z,73.75
2018-03-20T10:01:40.671Z,74.03
2018-03-20T10:02:40.622Z,74.60
2018-03-20T10:03:40.571Z,75.07
2018-03-20T10:04:40.518Z,74.98
2018-03-20T10:05:40.489Z,75.07
2018-03-20T10:06:40.416Z,75.07
2018-03-20T10:07:40.364Z,74.98
2018-03-20T10:08:40.315Z,75.36
2018-03-20T10:09:40.262Z,74.41
2018-03-20T10:10:40.235Z,73.37
2018-03-20T10:11:40.162Z,73.65
2018-03-20T10:12:40.140Z,72.99
2018-03-20T10:13:40.060Z,71.19
2018-03-20T10:14:40.005Z,71.00
2018-03-20T10:15:39.984Z,70.24
2018-03-20T10:16:39.902Z,72.80
2018-03-20T10:17:39.852Z,71.66
2018-03-20T10:18:39.801Z,71.09
2018-03-20T10:19:39.749Z,71.47
2018-03-20T10:20:39.720Z,71.47
2018-03-20T10:21:39.650Z,71.66
2018-03-20T10:22:39.598Z,70.34
2018-03-20T10:23:39.547Z,70.24
2018-03-20T10:24:39.496Z,70.05
2018-03-20T10:25:39.467Z,70.24
2018-03-20T10:26:39.393Z,70.24
2018-03-20T10:27:39.340Z,70.05
2018-03-20T10:28:39.291Z,69.86
2018-03-20T10:29:39.286Z,68.73
2018-03-20T10:30:39.213Z,69.01
2018-03-20T10:31:39.137Z,68.35
2018-03-20T10:32:39.082Z,68.82
2018-03-20T10:33:39.035Z,68.82
2018-03-20T10:34:38.986Z,68.95
2018-03-20T10:35:38.956Z,69.33
2018-03-20T10:36:38.880Z,68.76
2018-03-20T10:37:38.832Z,67.81
2018-03-20T10:38:38.781Z,67.62
2018-03-20T10:39:38.729Z,67.33
2018-03-20T10:40:38.700Z,68.66
2018-03-20T10:41:38.626Z,69.13
2018-03-20T10:42:38.576Z,69.04
2018-03-20T10:43:38.524Z,70.37
2018-03-20T10:44:38.478Z,70.37
2018-03-20T10:45:38.450Z,70.09
2018-03-20T10:46:38.370Z,67.71
2018-03-20T10:47:38.325Z,67.81
2018-03-20T10:48:38.270Z,67.33
2018-03-20T10:49:38.219Z,67.14
2018-03-20T10:50:38.194Z,66.20
2018-03-20T10:51:38.127Z,65.72
2018-03-20T10:52:38.068Z,65.82
2018-03-20T10:53:38.020Z,65.72
2018-03-20T10:54:37.966Z,66.67
2018-03-20T10:55:37.939Z,64.78
2018-03-20T10:56:37.862Z,63.73
2018-03-20T10:57:37.812Z,63.82
2018-03-20T10:58:37.762Z,64.40
2018-03-20T10:59:37.724Z,64.11
2018-03-20T11:00:37.687Z,64.11
2018-03-20T11:01:37.612Z,64.11
2018-03-20T11:02:37.560Z,64.62
2018-03-20T11:03:37.511Z,64.43
2018-03-20T11:04:37.460Z,62.53
2018-03-20T11:05:37.432Z,62.15
2018-03-20T11:06:37.357Z,62.53
2018-03-20T11:07:37.313Z,62.82
2018-03-20T11:08:37.258Z,62.34
2018-03-20T11:09:37.208Z,62.34
2018-03-20T11:10:37.180Z,64.14
2018-03-20T11:11:37.103Z,61.39
2018-03-20T11:12:37.112Z,60.63
2018-03-20T11:13:37.002Z,60.73
2018-03-20T11:14:36.957Z,61.87
2018-03-20T11:15:36.927Z,60.16
2018-03-20T11:16:36.884Z,60.25
2018-03-20T11:17:36.828Z,60.25
2018-03-20T11:18:36.752Z,60.73
2018-03-20T11:19:36.706Z,60.25
2018-03-20T11:20:36.677Z,60.73
2018-03-20T11:21:36.602Z,60.92
2018-03-20T11:22:36.550Z,60.73
2018-03-20T11:23:36.500Z,61.20
2018-03-20T11:24:36.466Z,61.20
2018-03-20T11:25:36.422Z,61.30
2018-03-20T11:26:36.346Z,60.92
2018-03-20T11:27:36.299Z,60.16
2018-03-20T11:28:36.246Z,61.11
2018-03-20T11:29:36.193Z,61.30
2018-03-20T11:30:36.170Z,61.39
2018-03-20T11:31:36.095Z,61.23
2018-03-20T11:32:36.045Z,60.47
2018-03-20T11:33:35.996Z,59.11
2018-03-20T11:34:35.943Z,58.36
2018-03-20T11:35:35.937Z,58.83
2018-03-20T11:36:35.840Z,58.73
2018-03-20T11:37:35.798Z,57.21
2018-03-20T11:38:35.743Z,56.27
2018-03-20T11:39:35.740Z,56.46
2018-03-20T11:40:35.666Z,55.89
2018-03-20T11:41:35.592Z,56.27
2018-03-20T11:42:35.541Z,56.08
2018-03-20T11:43:35.489Z,55.89
2018-03-20T11:44:35.439Z,56.93
2018-03-20T11:45:35.417Z,56.74
2018-03-20T11:46:35.339Z,57.21
2018-03-20T11:47:35.290Z,58.07
2018-03-20T11:48:35.242Z,58.95
2018-03-20T11:49:35.213Z,57.62
2018-03-20T11:50:35.157Z,57.15
2018-03-20T11:51:35.088Z,56.39
2018-03-20T11:52:35.035Z,56.17
2018-03-20T11:53:34.987Z,55.32
2018-03-20T11:54:34.940Z,55.44
2018-03-20T11:55:34.909Z,56.29
2018-03-20T11:56:34.832Z,55.35
2018-03-20T11:57:34.785Z,54.49
2018-03-20T11:58:34.734Z,53.83
2018-03-20T11:59:34.686Z,54.78
2018-03-20T12:00:34.661Z,55.63
2018-03-20T12:01:34.585Z,55.16
2018-03-20T12:02:34.536Z,54.68
2018-03-20T12:03:34.482Z,54.97
2018-03-20T12:04:34.435Z,54.87
2018-03-20T12:05:34.424Z,55.35
2018-03-20T12:06:34.334Z,55.35
2018-03-20T12:07:34.282Z,54.49
2018-03-20T12:08:34.245Z,53.92
2018-03-20T12:09:34.183Z,53.23
2018-03-20T12:10:34.133Z,54.85
2018-03-20T12:11:34.106Z,55.73
2018-03-20T12:12:34.030Z,54.58
2018-03-20T12:13:33.985Z,53.80
2018-03-20T12:14:33.933Z,54.02
2018-03-20T12:15:33.882Z,54.37
2018-03-20T12:16:33.858Z,54.56
2018-03-20T12:17:33.780Z,54.08
2018-03-20T12:18:33.733Z,54.66
2018-03-20T12:19:33.683Z,54.97
2018-03-20T12:20:33.630Z,54.97
2018-03-20T12:21:33.601Z,54.97
2018-03-20T12:22:33.528Z,53.64
2018-03-20T12:23:33.478Z,53.83
2018-03-20T12:24:33.430Z,54.68
2018-03-20T12:25:33.381Z,54.49
2018-03-20T12:26:33.353Z,53.16
2018-03-20T12:27:33.279Z,53.26
2018-03-20T12:28:33.228Z,53.16
2018-03-20T12:29:33.179Z,53.26
2018-03-20T12:30:33.127Z,53.35
2018-03-20T12:31:33.100Z,53.07
2018-03-20T12:32:33.027Z,53.16
2018-03-20T12:33:32.979Z,53.26
2018-03-20T12:34:32.926Z,53.35
2018-03-20T12:35:32.876Z,53.35
2018-03-20T12:36:32.847Z,52.50
2018-03-20T12:37:32.779Z,53.64
2018-03-20T12:38:32.728Z,54.21
2018-03-20T12:39:32.675Z,53.64
2018-03-20T12:40:32.628Z,53.83
2018-03-20T12:41:32.599Z,53.83
2018-03-20T12:42:32.532Z,54.68
2018-03-20T12:43:32.477Z,54.68
2018-03-20T12:44:32.425Z,54.58
2018-03-20T12:45:32.376Z,53.54
2018-03-20T12:46:32.386Z,53.92
2018-03-20T12:47:32.273Z,53.73
2018-03-20T12:48:32.228Z,53.16
2018-03-20T12:49:32.178Z,53.35
2018-03-20T12:50:32.124Z,53.35
2018-03-20T12:51:32.096Z,53.26